Time;durP1;ratioP1;P1;durP2;ratioP2;P2;SDS_P1;SDS_P2;PMS_P1;PMS_P2;Temp;Humidity;BMP_temperature;BMP_pressure;BME280_temperature;BME280_humidity;BME280_pressure;Samples;Min_cycle;Max_cycle;Signal;HPM_P1;HPM_P2
2022/04/12 00:00:56;;;;;;;5.50;2.30;;;;;;;5.37;68.93;101567.63;2102997;28;45566;-69
2022/04/12 00:01:58;;;;;;;5.93;2.53;;;;;;;5.38;67.86;101569.38;2103242;28;45540;-68
2022/04/12 00:03:00;;;;;;;4.80;2.45;;;;;;;5.37;68.50;101568.50;2096622;28;20071;-68
2022/04/12 00:04:03;;;;;;;5.88;2.35;;;;;;;5.38;67.47;101567.59;2095368;28;44166;-68
2022/04/12 00:05:06;;;;;;;5.88;2.80;;;;;;;5.35;68.35;101559.66;2095427;28;39979;-68
2022/04/12 00:06:30;;;;;;;6.72;2.28;;;;;;;5.33;68.56;101570.25;2096475;28;20168;-68
2022/04/12 00:07:34;;;;;;;4.70;2.53;;;;;;;5.32;67.67;101555.19;2096447;28;24903;-68
2022/04/12 00:08:35;;;;;;;6.15;2.40;;;;;;;5.29;67.68;101557.84;2095553;28;20033;-68
2022/04/12 00:09:37;;;;;;;4.15;2.42;;;;;;;5.29;68.32;101549.88;2095902;28;45129;-68
2022/04/12 00:10:39;;;;;;;6.10;2.38;;;;;;;5.27;68.17;101554.25;2103251;28;38981;-68
2022/04/12 00:11:42;;;;;;;3.53;2.20;;;;;;;5.24;67.97;101548.03;2104031;28;43901;-68
2022/04/12 00:12:44;;;;;;;3.53;2.40;;;;;;;5.26;68.00;101552.47;2103194;28;46644;-68
2022/04/12 00:13:46;;;;;;;6.13;2.85;;;;;;;5.25;68.84;101545.38;2104015;28;34790;-68
2022/04/12 00:14:47;;;;;;;6.82;2.72;;;;;;;5.24;68.40;101555.97;2097459;28;44431;-68
2022/04/12 00:15:49;;;;;;;5.88;2.55;;;;;;;5.23;67.79;101546.25;2087234;28;44309;-68
2022/04/12 00:19:02;;;;;;;6.18;2.55;;;;;;;5.21;67.75;101542.69;2086814;28;43359;-68
2022/04/12 00:19:32;;;;;;;5.45;2.28;;;;;;;5.22;67.74;101532.06;2086981;28;41070;-68
2022/04/12 00:20:36;;;;;;;7.82;2.90;;;;;;;5.21;67.91;101532.97;2086783;28;43383;-67
2022/04/12 00:21:39;;;;;;;6.63;2.83;;;;;;;5.20;68.87;101544.44;2086461;28;45780;-67
2022/04/12 00:22:41;;;;;;;5.60;2.72;;;;;;;5.17;68.55;101531.16;2086380;28;43899;-69
2022/04/12 00:23:43;;;;;;;5.18;2.50;;;;;;;5.14;69.06;101531.13;2087109;28;46280;-67
2022/04/12 00:24:45;;;;;;;6.50;2.50;;;;;;;5.11;68.46;101531.09;2086834;28;43637;-69
2022/04/12 00:25:46;;;;;;;6.00;2.33;;;;;;;5.11;68.19;101541.72;2087389;28;45660;-68
2022/04/12 00:26:49;;;;;;;5.20;2.72;;;;;;;5.08;68.33;101533.72;2086908;28;44547;-68
2022/04/12 00:27:54;;;;;;;9.07;2.53;;;;;;;5.07;69.11;101534.59;2088298;28;26413;-68
2022/04/12 00:28:55;;;;;;;7.68;2.42;;;;;;;5.05;69.12;101529.28;2086283;28;46408;-67
2022/04/12 00:29:59;;;;;;;5.20;2.85;;;;;;;5.07;68.89;101531.94;2086742;28;43725;-67
2022/04/12 00:31:02;;;;;;;8.73;2.70;;;;;;;5.05;68.36;101536.38;2087098;28;39727;-68
2022/04/12 00:32:04;;;;;;;6.18;2.70;;;;;;;5.07;68.09;101530.19;2087337;28;46134;-68
2022/04/12 00:33:08;;;;;;;6.43;2.72;;;;;;;5.05;67.91;101533.72;2088218;28;20752;-68
2022/04/12 00:34:10;;;;;;;5.63;2.60;;;;;;;5.04;68.48;101534.56;2087572;28;44804;-67
2022/04/12 00:35:11;;;;;;;6.45;2.35;;;;;;;5.02;69.05;101529.25;2087367;28;43433;-67
2022/04/12 00:36:14;;;;;;;5.45;2.70;;;;;;;5.02;67.95;101531.91;2087535;28;45489;-67
2022/04/12 00:37:17;;;;;;;4.35;1.92;;;;;;;5.01;69.00;101529.22;2085506;28;44241;-67
2022/04/12 00:38:22;;;;;;;5.93;2.67;;;;;;;5.02;68.33;101534.56;2095805;28;27350;-67
2022/04/12 00:39:23;;;;;;;4.57;2.70;;;;;;;4.99;68.40;101537.19;2101990;28;44172;-67
2022/04/12 00:40:26;;;;;;;5.38;2.20;;;;;;;5.02;68.95;101536.31;2094572;28;45304;-68
2022/04/12 00:41:35;;;;;;;6.28;2.33;;;;;;;5.02;67.72;101525.72;2087061;28;45460;-67
2022/04/12 00:42:37;;;;;;;9.20;2.30;;;;;;;5.01;68.98;101524.81;2087684;28;41701;-67
2022/04/12 00:43:42;;;;;;;4.82;2.50;;;;;;;4.96;67.97;101522.13;2087120;28;41992;-66
2022/04/12 00:44:43;;;;;;;5.97;2.70;;;;;;;4.92;68.78;101520.31;2091945;28;43027;-66
2022/04/12 00:45:47;;;;;;;5.88;2.75;;;;;;;4.90;69.33;101516.75;2104011;28;20898;-68
2022/04/12 00:46:49;;;;;;;4.75;2.08;;;;;;;4.89;69.20;101514.97;2103204;28;41510;-67
2022/04/12 00:47:51;;;;;;;6.82;2.55;;;;;;;4.87;68.44;101515.84;2095169;28;37125;-67
2022/04/12 00:48:52;;;;;;;8.50;2.83;;;;;;;4.85;69.41;101513.19;2096958;28;20948;-67
2022/04/12 00:49:57;;;;;;;4.65;2.40;;;;;;;4.86;69.29;101519.38;2095375;28;23847;-67
2022/04/12 00:51:00;;;;;;;7.47;2.40;;;;;;;4.86;68.15;101517.59;2103203;28;45790;-67
2022/04/12 00:52:04;;;;;;;6.25;2.80;;;;;;;4.88;69.01;101521.19;2101772;28;45267;-67
2022/04/12 00:53:08;;;;;;;4.13;2.65;;;;;;;4.87;69.30;101516.72;2102441;28;46472;-68
2022/04/12 00:54:12;;;;;;;6.75;3.05;;;;;;;4.87;69.03;101518.50;2103181;28;20090;-68
2022/04/12 00:55:14;;;;;;;5.50;2.60;;;;;;;4.85;68.45;101515.81;2102896;28;44028;-67
2022/04/12 00:56:17;;;;;;;4.68;2.38;;;;;;;4.87;68.32;101506.13;2102665;28;43550;-68
2022/04/12 00:57:19;;;;;;;5.85;2.58;;;;;;;4.89;68.38;101509.66;2095507;28;45370;-66
2022/04/12 00:58:21;;;;;;;5.18;2.25;;;;;;;4.91;68.42;101512.34;2093917;28;45607;-69
2022/04/12 00:59:25;;;;;;;6.75;2.35;;;;;;;4.86;69.23;101504.31;2094873;28;45845;-67
2022/04/12 01:00:27;;;;;;;4.80;2.33;;;;;;;4.86;68.25;101509.63;2103046;28;43907;-68
2022/04/12 01:01:29;;;;;;;5.93;2.72;;;;;;;4.86;68.50;101501.66;2102487;28;46509;-69
2022/04/12 01:02:32;;;;;;;7.60;2.63;;;;;;;4.85;69.22;101507.88;2103468;28;32098;-67
2022/04/12 01:03:34;;;;;;;8.70;2.53;;;;;;;4.82;69.68;101509.59;2102667;28;45479;-67
2022/04/12 01:04:36;;;;;;;3.85;2.25;;;;;;;4.83;68.82;101504.31;2102167;28;44446;-68
2022/04/12 01:05:38;;;;;;;6.20;2.50;;;;;;;4.85;69.17;101501.69;2103477;28;40094;-67
2022/04/12 01:06:40;;;;;;;6.45;2.28;;;;;;;4.80;68.83;101493.66;2102393;28;45807;-68
2022/04/12 01:07:43;;;;;;;6.15;2.72;;;;;;;4.78;69.15;101495.41;2103242;28;42866;-67
2022/04/12 01:08:45;;;;;;;6.70;2.75;;;;;;;4.80;69.33;101493.66;2095148;28;32817;-68
2022/04/12 01:09:47;;;;;;;6.57;2.50;;;;;;;4.78;68.60;101492.75;2095844;28;44859;-69
2022/04/12 01:10:49;;;;;;;7.53;2.70;;;;;;;4.76;69.22;101487.44;2095089;28;45443;-67
2022/04/12 01:11:52;;;;;;;4.85;2.53;;;;;;;4.72;69.21;101495.34;2102490;28;44097;-67
2022/04/12 01:12:54;;;;;;;5.97;2.80;;;;;;;4.70;69.27;101487.41;2094543;28;35949;-67
2022/04/12 01:13:55;;;;;;;5.53;2.40;;;;;;;4.69;69.20;101492.69;2094394;28;45523;-67
2022/04/12 01:15:18;;;;;;;5.88;2.85;;;;;;;4.70;69.74;101491.78;2094263;28;44340;-67
2022/04/12 01:16:20;;;;;;;5.57;2.72;;;;;;;4.68;69.67;101498.84;2095510;28;44044;-68
2022/04/12 01:17:21;;;;;;;7.15;2.80;;;;;;;4.69;68.82;101495.34;2096807;28;45868;-69
2022/04/12 01:18:23;;;;;;;4.18;2.67;;;;;;;4.70;69.11;101492.69;2097042;28;43084;-67
2022/04/12 01:19:25;;;;;;;6.55;2.67;;;;;;;4.69;69.64;101496.22;2096747;28;44189;-68
2022/04/12 01:20:32;;;;;;;4.80;2.75;;;;;;;4.68;69.82;101494.41;2112825;28;42913;-67
2022/04/12 01:21:46;;;;;;;5.72;2.88;;;;;;;4.67;69.31;101494.44;2111213;28;41978;-67
2022/04/12 01:23:00;;;;;;;7.90;2.70;;;;;;;4.69;69.12;101495.34;2104248;28;39105;-67
2022/04/12 01:24:04;;;;;;;4.45;2.60;;;;;;;4.66;69.13;101492.63;2096278;28;45768;-67
2022/04/12 01:25:06;;;;;;;6.30;2.45;;;;;;;4.67;68.54;101497.09;2095833;28;43893;-67
2022/04/12 01:26:08;;;;;;;2.95;1.83;;;;;;;4.66;68.93;101492.63;2105564;28;20040;-67
2022/04/12 01:27:10;;;;;;;5.43;2.35;;;;;;;4.66;68.48;101496.16;2095516;28;42105;-68
2022/04/12 01:28:12;;;;;;;4.72;2.40;;;;;;;4.65;68.02;101486.47;2087992;28;44272;-67
2022/04/12 01:29:14;;;;;;;5.07;2.40;;;;;;;4.66;68.46;101497.94;2096494;28;45856;-67
2022/04/12 01:30:16;;;;;;;5.72;2.60;;;;;;;4.67;68.29;101494.44;2104344;28;45471;-68
2022/04/12 01:31:18;;;;;;;6.22;2.90;;;;;;;4.62;68.47;101497.03;2104363;28;32606;-67
2022/04/12 01:32:19;;;;;;;4.60;2.60;;;;;;;4.61;68.62;101492.56;2096022;28;43614;-67
2022/04/12 01:33:23;;;;;;;6.43;2.60;;;;;;;4.62;67.98;101496.16;2096312;28;45377;-67
2022/04/12 01:34:25;;;;;;;5.13;2.47;;;;;;;4.61;68.35;101505.84;2097477;28;23923;-67
2022/04/12 01:35:27;;;;;;;7.68;2.60;;;;;;;4.61;69.20;101503.19;2096544;28;45484;-67
2022/04/12 01:36:29;;;;;;;4.00;2.40;;;;;;;4.56;68.59;101495.19;2096332;28;46436;-69
2022/04/12 01:37:30;;;;;;;8.75;2.40;;;;;;;4.57;68.44;101502.25;2096517;28;43706;-67
2022/04/12 01:38:32;;;;;;;7.32;2.80;;;;;;;4.56;68.78;101505.81;2096725;28;44318;-69
2022/04/12 01:39:34;;;;;;;8.20;2.88;;;;;;;4.55;68.68;101492.53;2096563;28;41604;-67
2022/04/12 01:40:35;;;;;;;5.22;2.40;;;;;;;4.54;68.96;101491.66;2097406;28;20122;-69
2022/04/12 01:41:37;;;;;;;5.70;2.70;;;;;;;4.53;69.25;101495.16;2096508;28;44896;-66
2022/04/12 01:42:39;;;;;;;5.13;3.05;;;;;;;4.52;69.33;101493.41;2097028;28;43629;-67
2022/04/12 01:43:41;;;;;;;6.25;3.03;;;;;;;4.53;68.98;101488.97;2097071;28;36249;-67
2022/04/12 01:44:43;;;;;;;5.95;2.33;;;;;;;4.54;69.34;101491.66;2096330;28;43869;-67
2022/04/12 01:45:45;;;;;;;7.85;2.75;;;;;;;4.55;69.10;101489.88;2112458;28;41351;-67
2022/04/12 01:46:49;;;;;;;4.45;2.67;;;;;;;4.56;69.08;101491.66;2112854;28;45799;-67
2022/04/12 01:47:50;;;;;;;4.78;2.60;;;;;;;4.55;68.30;101492.53;2096706;28;38670;-68
2022/04/12 01:48:52;;;;;;;6.25;2.63;;;;;;;4.57;68.50;101491.66;2097132;28;42981;-68
2022/04/12 01:49:54;;;;;;;5.15;2.53;;;;;;;4.56;68.36;101495.19;2096226;28;44513;-68
2022/04/12 01:50:55;;;;;;;6.13;2.53;;;;;;;4.55;68.52;101493.41;2096349;28;40949;-67
2022/04/12 01:52:02;;;;;;;5.28;2.67;;;;;;;4.56;68.26;101492.53;2095405;28;43708;-68
2022/04/12 01:53:04;;;;;;;9.82;2.50;;;;;;;4.57;69.61;101486.34;2096240;28;45374;-67
2022/04/12 01:54:06;;;;;;;5.10;2.35;;;;;;;4.59;68.09;101484.63;2096487;28;20041;-68
2022/04/12 01:55:12;;;;;;;6.70;3.08;;;;;;;4.59;68.92;101486.38;2087792;28;44798;-67
2022/04/12 01:56:13;;;;;;;6.70;2.80;;;;;;;4.58;68.39;101498.75;2088849;28;24192;-67
2022/04/12 01:57:15;;;;;;;4.40;2.50;;;;;;;4.57;68.95;101494.31;2096989;28;20151;-67
2022/04/12 01:58:17;;;;;;;6.10;2.45;;;;;;;4.59;68.93;101486.38;2096166;28;45597;-67
2022/04/12 01:59:22;;;;;;;4.68;2.50;;;;;;;4.61;68.75;101483.75;2097716;28;20794;-68
2022/04/12 02:00:24;;;;;;;6.35;2.70;;;;;;;4.65;68.00;101486.47;2096021;28;46478;-68
2022/04/12 02:01:26;;;;;;;8.82;3.30;;;;;;;4.64;67.90;101481.13;2097509;28;20091;-67
2022/04/12 02:02:28;;;;;;;5.97;2.72;;;;;;;4.69;67.53;101480.28;2097240;28;20270;-68
2022/04/12 02:03:29;;;;;;;5.90;2.65;;;;;;;4.70;68.38;101482.09;2095659;28;39409;-67
2022/04/12 02:04:31;;;;;;;6.25;2.80;;;;;;;4.71;67.61;101482.97;2095702;28;43392;-67
2022/04/12 02:05:35;;;;;;;4.35;2.47;;;;;;;4.74;67.29;101480.34;2096276;28;38303;-67
2022/04/12 02:06:37;;;;;;;5.35;2.50;;;;;;;4.70;67.74;101479.44;2095704;28;45725;-67
2022/04/12 02:07:43;;;;;;;5.93;2.83;;;;;;;4.73;68.46;101483.88;2104378;28;45457;-67
2022/04/12 02:08:45;;;;;;;5.30;2.47;;;;;;;4.73;67.94;101481.22;2102687;28;45426;-66
2022/04/12 02:09:48;;;;;;;4.90;2.65;;;;;;;4.73;68.39;101478.56;2096308;28;27182;-68
2022/04/12 02:10:50;;;;;;;6.68;3.13;;;;;;;4.73;68.44;101478.56;2096607;28;36657;-67
2022/04/12 02:11:56;;;;;;;7.55;2.92;;;;;;;4.75;68.20;101479.47;2096866;28;45907;-66
2022/04/12 02:12:58;;;;;;;5.35;2.35;;;;;;;4.74;67.02;101488.31;2096225;28;45303;-66
2022/04/12 02:14:00;;;;;;;5.55;2.63;;;;;;;4.77;66.86;101475.06;2104362;28;44404;-67
2022/04/12 02:15:06;;;;;;;6.38;2.85;;;;;;;4.76;66.92;101475.94;2111722;27;46638;-66
2022/04/12 02:16:07;;;;;;;7.07;3.03;;;;;;;4.77;67.03;101473.31;2111653;28;43037;-66
2022/04/12 02:17:09;;;;;;;6.38;2.60;;;;;;;4.75;67.46;101471.50;2095248;28;43858;-67
2022/04/12 02:18:11;;;;;;;6.68;2.67;;;;;;;4.73;68.13;101467.94;2095764;28;44095;-67
2022/04/12 02:19:12;;;;;;;5.30;2.63;;;;;;;4.73;67.91;101475.91;2095912;28;44896;-67
2022/04/12 02:20:14;;;;;;;4.78;2.95;;;;;;;4.74;67.36;101478.59;2095756;28;43101;-66
2022/04/12 02:21:16;;;;;;;6.03;3.17;;;;;;;4.72;67.57;101468.81;2095560;28;45832;-67
2022/04/12 02:22:17;;;;;;;4.47;2.92;;;;;;;4.72;67.98;101468.81;2096177;28;45502;-67
2022/04/12 02:23:19;;;;;;;5.72;2.65;;;;;;;4.73;68.06;101478.56;2096453;28;38622;-66
2022/04/12 02:24:21;;;;;;;6.53;2.88;;;;;;;4.72;67.81;101471.47;2096168;28;47867;-68
2022/04/12 02:25:22;;;;;;;4.88;2.95;;;;;;;4.72;67.50;101479.44;2096138;28;44013;-67
2022/04/12 02:26:24;;;;;;;5.03;2.72;;;;;;;4.71;66.98;101467.94;2097209;28;34530;-67
2022/04/12 02:27:30;;;;;;;6.93;2.75;;;;;;;4.72;67.16;101468.81;2095767;28;46346;-67
2022/04/12 02:28:34;;;;;;;11.90;3.00;;;;;;;4.72;67.25;101482.06;2095300;28;43325;-66
2022/04/12 02:29:36;;;;;;;6.10;2.88;;;;;;;4.75;67.07;101468.84;2095158;28;34254;-67
2022/04/12 02:30:38;;;;;;;6.00;2.80;;;;;;;4.72;67.32;101463.50;2096426;28;45916;-68
2022/04/12 02:31:41;;;;;;;5.40;2.88;;;;;;;4.72;67.29;101463.50;2096054;28;45452;-67
2022/04/12 02:32:43;;;;;;;6.25;2.92;;;;;;;4.71;67.59;101464.41;2104885;28;28688;-67
2022/04/12 02:33:46;;;;;;;6.88;2.85;;;;;;;4.70;67.26;101460.88;2103457;28;41856;-67
2022/04/12 02:34:48;;;;;;;3.67;2.88;;;;;;;4.70;67.52;101462.59;2096398;28;42678;-67
2022/04/12 02:35:50;;;;;;;8.32;2.85;;;;;;;4.69;67.96;101464.38;2096343;28;44758;-67
2022/04/12 02:36:51;;;;;;;5.25;2.97;;;;;;;4.72;68.11;101463.50;2096034;28;45131;-68
2022/04/12 02:37:53;;;;;;;6.75;3.03;;;;;;;4.74;67.38;101469.75;2096549;28;20041;-67
2022/04/12 02:38:55;;;;;;;6.50;2.85;;;;;;;4.72;67.06;101468.81;2104279;28;43626;-68
2022/04/12 02:39:57;;;;;;;5.78;2.78;;;;;;;4.72;67.45;101464.41;2103384;28;45642;-67
2022/04/12 02:40:58;;;;;;;5.35;2.60;;;;;;;4.72;67.69;101460.84;2095952;28;43842;-67
2022/04/12 02:42:00;;;;;;;4.60;2.70;;;;;;;4.73;68.01;101460.00;2095388;28;43827;-67
2022/04/12 02:43:02;;;;;;;5.75;2.80;;;;;;;4.72;67.74;101461.78;2095659;28;44433;-68
2022/04/12 02:44:04;;;;;;;4.13;2.63;;;;;;;4.74;67.96;101467.09;2096203;28;43287;-68
2022/04/12 02:45:06;;;;;;;6.70;2.70;;;;;;;4.72;67.97;101471.47;2095903;28;44128;-67
2022/04/12 02:46:09;;;;;;;6.57;3.00;;;;;;;4.71;67.52;101467.06;2096280;28;45418;-67
2022/04/12 02:47:12;;;;;;;5.75;2.42;;;;;;;4.70;67.40;101465.25;2096405;28;44295;-67
2022/04/12 02:48:13;;;;;;;3.10;2.20;;;;;;;4.68;67.90;101473.19;2096680;28;30727;-68
2022/04/12 02:49:15;;;;;;;8.07;3.00;;;;;;;4.68;67.55;101465.25;2096672;28;43637;-68
2022/04/12 02:50:17;;;;;;;7.22;3.00;;;;;;;4.68;67.47;101462.59;2095559;28;44286;-67
2022/04/12 02:51:18;;;;;;;4.55;3.00;;;;;;;4.69;67.74;101463.50;2096296;28;45137;-67
2022/04/12 02:52:20;;;;;;;6.75;3.20;;;;;;;4.71;68.19;101451.13;2095789;28;43385;-67
2022/04/12 02:53:22;;;;;;;3.92;2.50;;;;;;;4.71;67.77;101451.13;2095186;28;44312;-67
2022/04/12 02:54:23;;;;;;;6.10;2.78;;;;;;;4.71;68.18;101453.78;2096194;28;35680;-67
2022/04/12 02:55:25;;;;;;;6.43;2.90;;;;;;;4.68;67.30;101445.78;2095974;28;45248;-67
2022/04/12 02:56:30;;;;;;;6.20;2.90;;;;;;;4.67;67.20;101446.69;2096670;28;20044;-67
2022/04/12 02:57:32;;;;;;;4.63;2.47;;;;;;;4.68;67.21;101448.44;2095902;28;43545;-67
2022/04/12 02:58:34;;;;;;;6.93;2.55;;;;;;;4.68;68.04;101449.31;2096095;28;44036;-68
2022/04/12 02:59:35;;;;;;;4.72;2.88;;;;;;;4.66;67.57;101452.84;2095949;28;44220;-67
2022/04/12 03:00:38;;;;;;;6.57;2.97;;;;;;;4.69;68.20;101452.91;2104140;28;20032;-67
2022/04/12 03:01:40;;;;;;;6.90;2.92;;;;;;;4.69;68.21;101452.91;2103298;28;46473;-67
2022/04/12 03:02:42;;;;;;;4.03;2.70;;;;;;;4.67;68.17;101450.22;2095787;28;43916;-67
2022/04/12 03:03:45;;;;;;;6.18;2.80;;;;;;;4.66;68.28;101447.56;2096167;28;44459;-67
2022/04/12 03:04:47;;;;;;;4.15;2.55;;;;;;;4.65;67.56;101440.44;2096670;28;28813;-67
2022/04/12 03:05:48;;;;;;;7.30;3.38;;;;;;;4.63;68.34;101437.81;2096188;28;43879;-67
2022/04/12 03:06:50;;;;;;;5.35;3.03;;;;;;;4.62;68.29;101446.63;2095787;28;45281;-68
2022/04/12 03:07:55;;;;;;;6.70;3.10;;;;;;;4.62;68.27;101441.31;2103786;28;40926;-68
2022/04/12 03:08:59;;;;;;;6.43;2.92;;;;;;;4.64;67.66;101444.88;2102666;28;43047;-68
2022/04/12 03:10:01;;;;;;;6.53;2.80;;;;;;;4.65;67.59;101443.09;2095482;28;44489;-67
2022/04/12 03:11:03;;;;;;;7.80;2.80;;;;;;;4.63;67.88;101451.06;2096211;28;45016;-67
2022/04/12 03:12:05;;;;;;;6.22;2.80;;;;;;;4.64;67.58;101449.31;2095786;28;33131;-67
2022/04/12 03:13:07;;;;;;;4.07;2.60;;;;;;;4.62;67.60;101448.41;2095807;28;45745;-67
2022/04/12 03:14:08;;;;;;;5.03;2.75;;;;;;;4.63;67.55;101444.84;2095670;28;44514;-67
2022/04/12 03:15:10;;;;;;;7.40;2.90;;;;;;;4.61;67.74;101447.50;2095718;28;46309;-67
2022/04/12 03:16:12;;;;;;;6.18;3.28;;;;;;;4.62;67.99;101443.09;2096051;28;42162;-67
2022/04/12 03:17:14;;;;;;;5.53;2.78;;;;;;;4.61;67.40;101451.91;2095172;28;41430;-67
2022/04/12 03:18:17;;;;;;;5.07;2.90;;;;;;;4.58;68.00;101443.06;2094992;28;43383;-67
2022/04/12 03:19:18;;;;;;;4.97;2.90;;;;;;;4.56;67.95;101444.81;2095797;28;44188;-67
2022/04/12 03:20:20;;;;;;;6.32;2.50;;;;;;;4.56;68.01;101443.94;2103397;28;45251;-66
2022/04/12 03:21:22;;;;;;;5.20;2.55;;;;;;;4.53;69.05;101444.78;2103375;28;42993;-67
2022/04/12 03:22:24;;;;;;;5.13;2.78;;;;;;;4.55;67.80;101440.38;2103447;28;44437;-69
2022/04/12 03:23:27;;;;;;;5.13;3.03;;;;;;;4.56;67.94;101442.16;2104574;28;20889;-68
2022/04/12 03:24:31;;;;;;;4.10;2.50;;;;;;;4.51;68.71;101449.19;2095314;28;44114;-66
2022/04/12 03:25:32;;;;;;;7.03;2.67;;;;;;;4.51;68.80;101446.53;2103538;28;46653;-68
2022/04/12 03:26:35;;;;;;;6.90;3.25;;;;;;;4.51;68.41;101443.88;2103827;28;29747;-68
2022/04/12 03:27:37;;;;;;;5.00;2.88;;;;;;;4.49;67.65;101442.09;2095064;28;43305;-66
2022/04/12 03:28:38;;;;;;;5.90;3.03;;;;;;;4.47;69.41;101442.06;2103319;28;45944;-68
2022/04/12 03:29:40;;;;;;;5.60;3.10;;;;;;;4.51;69.05;101443.00;2103575;28;45663;-68
2022/04/12 03:30:42;;;;;;;5.78;2.78;;;;;;;4.47;69.42;101439.44;2096625;28;20122;-67
2022/04/12 03:31:44;;;;;;;7.78;3.08;;;;;;;4.46;69.04;101444.72;2103694;28;33021;-69
2022/04/12 03:32:46;;;;;;;5.45;3.05;;;;;;;4.46;68.86;101445.59;2103698;28;45623;-67
2022/04/12 03:33:48;;;;;;;6.28;2.95;;;;;;;4.44;68.69;101449.09;2095883;28;43601;-67
2022/04/12 03:34:50;;;;;;;4.53;2.75;;;;;;;4.41;69.36;101447.28;2103780;28;43401;-67
2022/04/12 03:35:51;;;;;;;6.18;3.28;;;;;;;4.40;69.22;101440.22;2102934;28;45812;-67
2022/04/12 03:36:53;;;;;;;5.85;3.22;;;;;;;4.39;70.15;101446.41;2096034;28;45773;-68
2022/04/12 03:38:01;;;;;;;6.22;2.90;;;;;;;4.38;69.79;101434.03;2095905;28;45455;-67
2022/04/12 03:39:04;;;;;;;7.97;3.13;;;;;;;4.36;69.78;101439.31;2095586;28;46876;-67
2022/04/12 03:40:07;;;;;;;4.75;3.00;;;;;;;4.35;69.59;101444.59;2095614;28;36619;-68
2022/04/12 03:41:08;;;;;;;5.50;3.20;;;;;;;4.31;69.50;101445.44;2095904;28;43932;-67
2022/04/12 03:42:11;;;;;;;6.88;3.00;;;;;;;4.31;69.95;101437.50;2095868;28;44805;-67
2022/04/12 03:43:13;;;;;;;10.70;3.35;;;;;;;4.28;69.72;101434.78;2103586;28;43588;-66
2022/04/12 03:44:17;;;;;;;5.82;3.20;;;;;;;4.31;69.93;101442.78;2103627;28;20086;-67
2022/04/12 03:45:21;;;;;;;6.63;3.10;;;;;;;4.30;69.96;101438.34;2095350;28;43874;-67
2022/04/12 03:46:23;;;;;;;8.45;3.30;;;;;;;4.29;70.06;101444.50;2104121;28;31470;-66
2022/04/12 03:47:24;;;;;;;8.63;3.55;;;;;;;4.29;69.27;101439.22;2103468;28;45771;-67
2022/04/12 03:48:26;;;;;;;5.80;2.97;;;;;;;4.26;70.05;101439.19;2095502;28;44953;-67
2022/04/12 03:49:28;;;;;;;6.07;3.47;;;;;;;4.27;70.14;101441.88;2095591;28;46493;-67
2022/04/12 03:50:31;;;;;;;8.77;2.90;;;;;;;4.27;70.08;101440.97;2111659;28;42580;-67
2022/04/12 03:51:32;;;;;;;5.68;2.80;;;;;;;4.26;70.00;101449.78;2111515;28;42250;-67
2022/04/12 03:52:36;;;;;;;8.55;3.45;;;;;;;4.26;69.49;101447.16;2095089;28;44695;-67
2022/04/12 03:53:38;;;;;;;6.40;3.00;;;;;;;4.26;69.83;101444.50;2096352;28;20079;-69
2022/04/12 03:54:40;;;;;;;6.13;2.95;;;;;;;4.23;69.88;101440.03;2095512;28;46375;-67
2022/04/12 03:55:46;;;;;;;6.80;3.50;;;;;;;4.23;70.07;101442.69;2111821;28;42823;-67
2022/04/12 03:56:48;;;;;;;9.20;3.35;;;;;;;4.20;70.03;101443.56;2110873;28;44147;-67
2022/04/12 03:57:49;;;;;;;6.90;3.45;;;;;;;4.20;69.82;101445.31;2095342;28;45308;-67
2022/04/12 03:58:51;;;;;;;9.60;3.42;;;;;;;4.20;69.69;101438.25;2095621;28;42037;-66
2022/04/12 03:59:52;;;;;;;5.00;3.03;;;;;;;4.20;69.66;101438.25;2095672;28;43922;-68
2022/04/12 04:00:54;;;;;;;7.55;3.45;;;;;;;4.21;70.09;101441.78;2096059;28;32728;-68
2022/04/12 04:01:56;;;;;;;9.10;3.40;;;;;;;4.19;70.49;101439.09;2095145;28;45526;-69
2022/04/12 04:02:58;;;;;;;4.82;3.05;;;;;;;4.19;69.64;101436.47;2096541;28;29678;-67
2022/04/12 04:04:02;;;;;;;6.07;3.17;;;;;;;4.19;69.82;101436.47;2103469;28;39760;-67
2022/04/12 04:05:04;;;;;;;7.15;3.00;;;;;;;4.19;70.58;101430.28;2102911;28;45312;-68
2022/04/12 04:06:06;;;;;;;5.38;3.25;;;;;;;4.18;70.35;101432.06;2095081;28;45685;-68
2022/04/12 04:07:08;;;;;;;7.53;3.45;;;;;;;4.17;69.80;101427.59;2095972;28;43302;-67
2022/04/12 04:08:10;;;;;;;8.07;3.25;;;;;;;4.17;69.86;101430.25;2096075;28;39604;-68
2022/04/12 04:09:12;;;;;;;4.97;2.97;;;;;;;4.17;70.13;101427.59;2095921;28;42201;-67
2022/04/12 04:10:14;;;;;;;6.93;3.20;;;;;;;4.19;70.21;101417.03;2104271;28;20877;-67
2022/04/12 04:11:16;;;;;;;9.38;3.35;;;;;;;4.18;70.19;101428.50;2103757;28;29785;-67
2022/04/12 04:12:20;;;;;;;4.35;3.25;;;;;;;4.17;69.90;101429.38;2096284;28;20050;-67
2022/04/12 04:13:24;;;;;;;7.53;3.25;;;;;;;4.15;69.95;101421.41;2096163;28;20160;-68
2022/04/12 04:14:28;;;;;;;8.93;3.30;;;;;;;4.17;69.87;101430.25;2095044;28;43768;-66
2022/04/12 04:15:31;;;;;;;6.32;3.25;;;;;;;4.19;70.20;101439.09;2111006;28;43020;-67
2022/04/12 04:16:33;;;;;;;5.43;3.75;;;;;;;4.20;69.72;101438.25;2110893;27;44561;-67
2022/04/12 04:17:35;;;;;;;6.47;3.40;;;;;;;4.18;69.96;101429.41;2095743;28;44381;-67
2022/04/12 04:18:37;;;;;;;6.45;3.60;;;;;;;4.18;69.70;101424.09;2095257;28;43027;-66
2022/04/12 04:19:41;;;;;;;6.57;3.72;;;;;;;4.19;69.65;101424.97;2095443;28;44582;-67
2022/04/12 04:20:42;;;;;;;4.97;3.25;;;;;;;4.18;69.57;101426.75;2096398;28;21142;-67
2022/04/12 04:21:44;;;;;;;5.65;3.25;;;;;;;4.17;69.67;101424.97;2095260;28;46412;-68
2022/04/12 04:22:46;;;;;;;5.00;3.42;;;;;;;4.17;70.03;101427.59;2113440;22;42368;-66
2022/04/12 04:23:48;;;;;;;9.23;3.22;;;;;;;4.17;69.31;101432.91;2089600;28;43831;-66
2022/04/12 04:24:49;;;;;;;5.80;3.88;;;;;;;4.16;69.98;101441.75;2087556;28;44564;-67
2022/04/12 04:25:51;;;;;;;6.90;3.40;;;;;;;4.14;69.68;101438.16;2087242;28;38071;-67
2022/04/12 04:26:55;;;;;;;6.57;3.25;;;;;;;4.13;69.76;101446.13;2087287;28;46176;-67
2022/04/12 04:27:57;;;;;;;7.70;3.60;;;;;;;4.15;69.09;101441.72;2087059;28;42266;-66
2022/04/12 04:28:58;;;;;;;5.43;3.30;;;;;;;4.15;69.23;101439.97;2087305;28;45283;-67
2022/04/12 04:30:03;;;;;;;4.65;2.83;;;;;;;4.15;69.58;101434.66;2078345;28;46017;-67
2022/04/12 04:31:05;;;;;;;5.93;3.05;;;;;;;4.15;69.85;101429.34;2078944;28;45489;-66
2022/04/12 04:32:07;;;;;;;6.20;3.72;;;;;;;4.16;69.59;101436.44;2087481;28;44321;-67
2022/04/12 04:33:09;;;;;;;5.20;3.40;;;;;;;4.17;69.50;101430.25;2087648;28;42479;-67
2022/04/12 04:34:10;;;;;;;5.75;3.30;;;;;;;4.17;69.44;101424.97;2087206;28;44028;-67
2022/04/12 04:35:13;;;;;;;5.68;3.20;;;;;;;4.16;70.00;101423.19;2087415;28;34970;-67
2022/04/12 04:36:15;;;;;;;7.95;3.63;;;;;;;4.16;69.85;101414.34;2086693;28;45119;-67
2022/04/12 04:37:18;;;;;;;6.28;3.45;;;;;;;4.18;69.59;101417.88;2078382;28;44802;-66
2022/04/12 04:38:20;;;;;;;5.25;3.53;;;;;;;4.18;69.54;101418.81;2086636;28;42364;-67
2022/04/12 04:39:23;;;;;;;6.47;3.30;;;;;;;4.19;69.14;101419.69;2088342;28;20045;-66
2022/04/12 04:40:27;;;;;;;6.50;3.88;;;;;;;4.21;69.72;101421.47;2078881;28;45368;-67
2022/04/12 04:41:28;;;;;;;5.90;3.33;;;;;;;4.19;69.66;101420.56;2087199;28;42051;-66
2022/04/12 04:42:32;;;;;;;6.53;3.20;;;;;;;4.20;69.18;101419.69;2086428;28;45982;-67
2022/04/12 04:43:34;;;;;;;7.13;3.50;;;;;;;4.19;69.23;101423.22;2078913;28;44608;-66
2022/04/12 04:44:35;;;;;;;6.78;3.58;;;;;;;4.19;69.69;101420.56;2087168;28;34938;-67
2022/04/12 04:45:37;;;;;;;9.50;3.70;;;;;;;4.20;69.74;101413.53;2087210;28;45122;-67
2022/04/12 04:46:39;;;;;;;7.45;3.70;;;;;;;4.20;69.23;101422.34;2095079;28;43493;-67
2022/04/12 04:47:59;;;;;;;9.05;3.55;;;;;;;4.19;69.42;101409.97;2094555;28;40869;-67
2022/04/12 04:49:01;;;;;;;6.53;3.58;;;;;;;4.21;69.62;101402.91;2086982;28;45733;-66
2022/04/12 04:50:02;;;;;;;6.13;3.60;;;;;;;4.23;69.10;101394.09;2087325;28;44311;-67
2022/04/12 04:51:04;;;;;;;8.38;3.45;;;;;;;4.23;69.19;101399.41;2086436;28;44762;-67
2022/04/12 04:52:06;;;;;;;7.55;4.15;;;;;;;4.24;69.81;101401.19;2087535;28;42189;-66
2022/04/12 04:53:11;;;;;;;7.43;3.65;;;;;;;4.25;69.24;101411.78;2097538;28;38633;-66
2022/04/12 04:54:14;;;;;;;8.18;4.13;;;;;;;4.24;69.53;101407.38;2099063;28;20037;-67
2022/04/12 04:55:17;;;;;;;6.90;3.78;;;;;;;4.24;69.70;101417.09;2087581;28;45465;-67
2022/04/12 04:56:19;;;;;;;6.95;3.65;;;;;;;4.27;68.92;101419.75;2088397;28;45213;-67
2022/04/12 04:57:20;;;;;;;6.70;3.65;;;;;;;4.28;69.39;101417.13;2095829;28;41932;-66